createdAt,value
2022-11-27T00:01:26.217Z,7.33
2022-11-27T00:06:31.923Z,7.27
2022-11-27T00:11:42.803Z,6.27
2022-11-27T00:16:49.058Z,8.33
2022-11-27T00:21:59.725Z,5.10
2022-11-27T00:27:07.377Z,8.60
2022-11-27T00:32:10.710Z,11.97
2022-11-27T00:37:28.891Z,9.43
2022-11-27T00:42:43.189Z,4.73
2022-11-27T00:47:52.001Z,4.00
2022-11-27T00:53:05.289Z,4.37
2022-11-27T00:58:14.326Z,6.20
2022-11-27T01:03:23.167Z,11.70
2022-11-27T01:08:28.042Z,5.67
2022-11-27T01:13:37.717Z,11.60
2022-11-27T01:18:44.251Z,3.87
2022-11-27T01:23:49.976Z,5.03
2022-11-27T01:28:55.638Z,3.07
2022-11-27T01:34:10.123Z,7.30
2022-11-27T01:39:18.336Z,7.30
2022-11-27T01:44:53.688Z,10.03
2022-11-27T01:50:21.357Z,5.23
2022-11-27T01:55:36.501Z,12.10
2022-11-27T02:00:40.436Z,7.67
2022-11-27T02:06:14.174Z,10.13
2022-11-27T02:11:27.040Z,3.60
2022-11-27T02:16:37.180Z,4.40
2022-11-27T02:21:46.943Z,7.57
2022-11-27T02:27:20.626Z,8.20
2022-11-27T02:32:30.864Z,12.10
2022-11-27T02:37:52.348Z,3.73
2022-11-27T02:43:00.889Z,5.60
2022-11-27T02:48:07.835Z,4.53
2022-11-27T02:53:18.338Z,4.50
2022-11-27T02:58:28.529Z,9.20
2022-11-27T03:03:41.020Z,4.83
2022-11-27T03:08:54.521Z,4.00
2022-11-27T03:14:00.881Z,7.50
2022-11-27T03:19:18.331Z,6.80
2022-11-27T03:24:25.071Z,8.13
2022-11-27T03:29:42.526Z,5.47
2022-11-27T03:34:49.850Z,3.23
2022-11-27T03:40:00.108Z,6.00
2022-11-27T03:45:20.463Z,13.30
2022-11-27T03:51:02.224Z,5.50
2022-11-27T03:56:20.550Z,3.10
2022-11-27T04:01:28.624Z,5.50
2022-11-27T04:06:35.489Z,4.57
2022-11-27T04:11:49.176Z,6.47
2022-11-27T04:16:54.119Z,4.90
2022-11-27T04:22:20.357Z,3.90
2022-11-27T04:27:23.769Z,4.40
2022-11-27T04:32:39.293Z,7.37
2022-11-27T04:37:48.663Z,6.83
2022-11-27T04:42:53.018Z,3.23
2022-11-27T04:48:01.704Z,4.13
2022-11-27T04:53:06.466Z,3.27
2022-11-27T04:58:10.787Z,4.60
2022-11-27T05:03:14.485Z,6.90
2022-11-27T05:08:20.319Z,9.27
2022-11-27T05:13:23.871Z,4.93
2022-11-27T05:18:27.532Z,6.23
2022-11-27T05:23:32.795Z,2.73
2022-11-27T05:28:37.777Z,6.80
2022-11-27T05:33:41.324Z,7.07
2022-11-27T05:38:47.282Z,4.67
2022-11-27T05:43:50.843Z,5.87
2022-11-27T05:48:56.306Z,5.27
2022-11-27T05:54:07.180Z,4.63
2022-11-27T05:59:17.470Z,3.67
2022-11-27T06:04:22.002Z,3.17
2022-11-27T06:09:40.495Z,5.13
2022-11-27T06:14:44.552Z,5.03
2022-11-27T06:19:54.138Z,4.53
2022-11-27T06:25:04.313Z,4.83
2022-11-27T06:30:09.882Z,3.27
2022-11-27T06:35:13.212Z,4.03
2022-11-27T06:40:18.225Z,4.57
2022-11-27T06:45:23.945Z,3.63
2022-11-27T06:50:29.533Z,3.47
2022-11-27T06:55:34.206Z,4.27
2022-11-27T07:00:37.985Z,3.87
2022-11-27T07:05:41.392Z,4.10
2022-11-27T07:10:47.176Z,4.37
2022-11-27T07:15:50.606Z,4.30
2022-11-27T07:20:56.772Z,3.30
2022-11-27T07:26:08.383Z,4.03
2022-11-27T07:31:13.223Z,4.33
2022-11-27T07:36:20.370Z,5.60
2022-11-27T07:41:32.140Z,5.33
2022-11-27T07:46:38.310Z,4.63
2022-11-27T07:51:43.295Z,9.20
2022-11-27T07:56:48.194Z,6.87
2022-11-27T08:01:51.504Z,6.90
2022-11-27T08:07:10.032Z,8.17
2022-11-27T08:12:22.871Z,5.07
2022-11-27T08:17:28.270Z,4.70
2022-11-27T08:22:31.686Z,4.07
2022-11-27T08:27:37.530Z,3.70
2022-11-27T08:32:58.029Z,3.80
2022-11-27T08:38:01.508Z,3.50
2022-11-27T08:43:06.188Z,3.57
2022-11-27T08:48:13.506Z,3.77
2022-11-27T08:53:18.442Z,4.83
2022-11-27T08:58:23.595Z,4.33
2022-11-27T09:03:27.826Z,3.90
2022-11-27T09:08:31.345Z,3.17
2022-11-27T09:13:40.391Z,2.93
2022-11-27T09:18:46.219Z,3.07
2022-11-27T09:23:54.270Z,3.13
2022-11-27T09:28:59.963Z,2.93
2022-11-27T09:34:04.930Z,2.70
2022-11-27T09:39:08.234Z,2.73
2022-11-27T09:44:35.201Z,2.40
2022-11-27T09:49:45.387Z,3.38
2022-11-27T09:54:55.059Z,3.17
2022-11-27T10:00:05.899Z,3.23
2022-11-27T10:05:16.247Z,3.00
2022-11-27T10:10:35.083Z,3.05
2022-11-27T10:15:49.954Z,2.83
2022-11-27T10:20:57.754Z,3.40
2022-11-27T10:26:05.566Z,3.40
2022-11-27T10:31:15.875Z,3.50
2022-11-27T10:36:28.676Z,3.65
2022-11-27T10:41:49.137Z,3.40
2022-11-27T10:47:00.854Z,3.72
2022-11-27T10:52:06.378Z,4.30
2022-11-27T10:57:25.809Z,3.47
2022-11-27T11:02:34.591Z,2.80
2022-11-27T11:07:38.098Z,2.50
2022-11-27T11:12:45.731Z,2.78
2022-11-27T11:17:52.727Z,3.42
2022-11-27T11:23:07.157Z,2.63
2022-11-27T11:28:19.420Z,2.90
2022-11-27T11:33:24.399Z,2.60
2022-11-27T11:38:32.375Z,1.95
2022-11-27T11:43:38.729Z,2.30
2022-11-27T11:48:55.102Z,2.72
2022-11-27T11:54:19.591Z,1.80
2022-11-27T11:59:32.249Z,1.70
2022-11-27T12:04:52.596Z,1.60
2022-11-27T12:10:02.854Z,1.63
2022-11-27T12:15:16.614Z,1.80
2022-11-27T12:20:28.536Z,1.40
2022-11-27T12:25:38.037Z,1.45
2022-11-27T12:30:49.208Z,1.38
2022-11-27T12:36:01.753Z,1.60
2022-11-27T12:41:24.790Z,2.20
2022-11-27T12:46:37.647Z,1.70
2022-11-27T12:51:48.610Z,2.60
2022-11-27T12:56:58.049Z,2.55
2022-11-27T13:02:12.501Z,2.58
2022-11-27T13:07:21.725Z,2.72
2022-11-27T13:12:30.884Z,2.63
2022-11-27T13:17:40.635Z,2.60
2022-11-27T13:22:56.315Z,3.00
2022-11-27T13:28:04.873Z,2.80
2022-11-27T13:33:27.034Z,2.83
2022-11-27T13:38:34.395Z,2.50
2022-11-27T13:43:46.567Z,2.22
2022-11-27T13:48:55.485Z,1.80
2022-11-27T13:54:18.323Z,1.88
2022-11-27T13:59:23.958Z,2.60
2022-11-27T14:04:37.248Z,2.80
2022-11-27T14:09:48.646Z,3.47
2022-11-27T14:15:21.711Z,3.78
2022-11-27T14:20:33.648Z,3.72
2022-11-27T14:25:48.632Z,3.70
2022-11-27T14:30:58.186Z,3.78
2022-11-27T14:36:24.101Z,3.47
2022-11-27T14:41:35.357Z,3.70
2022-11-27T14:46:41.581Z,3.58
2022-11-27T14:51:45.814Z,3.30
2022-11-27T14:56:51.204Z,3.53
2022-11-27T15:02:03.797Z,6.78
2022-11-27T15:07:26.429Z,5.00
2022-11-27T15:12:32.961Z,3.15
2022-11-27T15:17:38.928Z,3.15
2022-11-27T15:22:51.779Z,3.00
2022-11-27T15:27:56.788Z,2.60
2022-11-27T15:33:06.017Z,2.78
2022-11-27T15:38:11.885Z,2.78
2022-11-27T15:43:18.278Z,2.88
2022-11-27T15:48:23.534Z,2.60
2022-11-27T15:53:26.996Z,2.58
2022-11-27T15:58:33.158Z,2.25
2022-11-27T16:03:37.214Z,2.70
2022-11-27T16:08:40.847Z,2.80
2022-11-27T16:13:45.672Z,2.72
2022-11-27T16:19:01.232Z,2.55
2022-11-27T16:24:15.299Z,2.55
2022-11-27T16:29:20.164Z,4.43
2022-11-27T16:34:23.651Z,4.78
2022-11-27T16:39:35.308Z,5.47
2022-11-27T16:44:46.098Z,4.63
2022-11-27T16:49:50.641Z,3.65
2022-11-27T16:54:56.299Z,4.60
2022-11-27T17:00:02.756Z,4.25
2022-11-27T17:05:14.766Z,3.85
2022-11-27T17:10:18.175Z,4.22
2022-11-27T17:15:40.746Z,5.97
2022-11-27T17:20:45.489Z,17.05
2022-11-27T17:25:55.871Z,28.45
2022-11-27T17:31:00.775Z,25.70
2022-11-27T17:36:10.458Z,21.38
2022-11-27T17:41:18.019Z,9.80
2022-11-27T17:46:24.489Z,10.00
2022-11-27T17:51:30.974Z,7.68
2022-11-27T17:56:51.578Z,5.75
2022-11-27T18:02:02.680Z,5.13
2022-11-27T18:07:09.168Z,4.38
2022-11-27T18:12:12.633Z,4.37
2022-11-27T18:17:18.560Z,4.43
2022-11-27T18:22:24.956Z,3.90
2022-11-27T18:27:35.781Z,4.50
2022-11-27T18:32:40.997Z,4.27
2022-11-27T18:37:52.566Z,4.73
2022-11-27T18:42:56.953Z,4.60
2022-11-27T18:48:11.986Z,5.22
2022-11-27T18:53:20.712Z,6.93
2022-11-27T18:58:25.687Z,7.65
2022-11-27T19:03:40.158Z,6.72
2022-11-27T19:09:01.775Z,8.18
2022-11-27T19:14:14.816Z,8.18
2022-11-27T19:19:53.315Z,5.97
2022-11-27T19:25:00.907Z,7.10
2022-11-27T19:30:21.183Z,6.13
2022-11-27T19:35:35.459Z,5.17
2022-11-27T19:40:40.136Z,4.95
2022-11-27T19:45:43.771Z,4.70
2022-11-27T19:50:48.845Z,4.83
2022-11-27T19:55:55.804Z,4.55
2022-11-27T20:01:09.564Z,7.22
2022-11-27T20:06:16.572Z,6.88
2022-11-27T20:11:22.291Z,4.88
2022-11-27T20:16:26.256Z,4.72
2022-11-27T20:21:32.277Z,5.33
2022-11-27T20:26:41.221Z,4.73
2022-11-27T20:31:53.030Z,4.35
2022-11-27T20:37:00.284Z,3.38
2022-11-27T20:42:05.246Z,4.77
2022-11-27T20:47:10.718Z,4.97
2022-11-27T20:52:15.845Z,4.30
2022-11-27T20:57:19.306Z,4.00
2022-11-27T21:02:23.942Z,5.27
2022-11-27T21:07:31.005Z,3.93
2022-11-27T21:12:45.104Z,4.47
2022-11-27T21:17:48.516Z,4.38
2022-11-27T21:22:54.285Z,4.35
2022-11-27T21:27:58.625Z,3.85
2022-11-27T21:33:03.147Z,4.50
2022-11-27T21:38:09.354Z,4.73
2022-11-27T21:43:20.014Z,4.50
2022-11-27T21:48:23.494Z,3.73
2022-11-27T21:53:33.029Z,3.87
2022-11-27T21:58:38.036Z,4.20
2022-11-27T22:03:43.105Z,4.23
2022-11-27T22:08:49.591Z,4.43
2022-11-27T22:13:59.695Z,4.20
2022-11-27T22:19:06.848Z,4.40
2022-11-27T22:24:18.404Z,5.40
2022-11-27T22:29:26.845Z,7.07
2022-11-27T22:34:31.518Z,7.45
2022-11-27T22:39:36.876Z,6.53
2022-11-27T22:44:40.778Z,6.83
2022-11-27T22:49:44.878Z,7.03
2022-11-27T22:54:50.899Z,8.10
2022-11-27T23:00:00.259Z,6.53
2022-11-27T23:05:04.978Z,5.70
2022-11-27T23:10:10.615Z,6.57
2022-11-27T23:15:14.119Z,6.20
2022-11-27T23:20:17.877Z,5.75
2022-11-27T23:25:22.775Z,6.33
2022-11-27T23:30:26.223Z,5.70
2022-11-27T23:35:29.730Z,5.47
2022-11-27T23:40:34.749Z,4.88
2022-11-27T23:45:39.740Z,5.17
2022-11-27T23:50:43.990Z,5.63
2022-11-27T23:55:55.097Z,5.63
